sensor_id;sensor_type;location;lat;lon;timestamp;pressure;altitude;pressure_sealevel;temperature;humidity
53635;BME280;39542;-34.932;138.594;2023-04-29T00:00:07;101058.12;;;18.24;58.43
53635;BME280;39542;-34.932;138.594;2023-04-29T00:00:42;101057.95;;;18.25;58.52
53635;BME280;39542;-34.932;138.594;2023-04-29T00:01:16;101056.19;;;18.27;58.56
53635;BME280;39542;-34.932;138.594;2023-04-29T00:01:50;101055.45;;;18.28;58.77
53635;BME280;39542;-34.932;138.594;2023-04-29T00:02:25;101055.44;;;18.29;58.75
53635;BME280;39542;-34.932;138.594;2023-04-29T00:02:59;101052.60;;;18.25;58.93
53635;BME280;39542;-34.932;138.594;2023-04-29T00:03:33;101055.42;;;18.27;59.11
53635;BME280;39542;-34.932;138.594;2023-04-29T00:04:07;101056.28;;;18.31;59.11
53635;BME280;39542;-34.932;138.594;2023-04-29T00:04:42;101055.78;;;18.34;59.09
53635;BME280;39542;-34.932;138.594;2023-04-29T00:05:16;101052.98;;;18.37;59.09
53635;BME280;39542;-34.932;138.594;2023-04-29T00:05:50;101053.55;;;18.42;58.91
53635;BME280;39542;-34.932;138.594;2023-04-29T00:06:25;101054.52;;;18.39;58.97
53635;BME280;39542;-34.932;138.594;2023-04-29T00:06:59;101052.68;;;18.42;58.99
53635;BME280;39542;-34.932;138.594;2023-04-29T00:07:33;101052.78;;;18.44;59.04
53635;BME280;39542;-34.932;138.594;2023-04-29T00:08:08;101053.06;;;18.48;59.26
53635;BME280;39542;-34.932;138.594;2023-04-29T00:08:42;101053.10;;;18.45;59.17
53635;BME280;39542;-34.932;138.594;2023-04-29T00:09:16;101052.36;;;18.46;59.14
53635;BME280;39542;-34.932;138.594;2023-04-29T00:09:50;101053.08;;;18.52;59.26
53635;BME280;39542;-34.932;138.594;2023-04-29T00:10:24;101053.91;;;18.55;59.86
53635;BME280;39542;-34.932;138.594;2023-04-29T00:10:59;101053.22;;;18.57;59.28
53635;BME280;39542;-34.932;138.594;2023-04-29T00:11:33;101052.94;;;18.59;59.17
53635;BME280;39542;-34.932;138.594;2023-04-29T00:12:07;101048.97;;;18.58;59.70
53635;BME280;39542;-34.932;138.594;2023-04-29T00:12:42;101049.24;;;18.62;59.36
53635;BME280;39542;-34.932;138.594;2023-04-29T00:13:16;101052.48;;;18.63;59.21
53635;BME280;39542;-34.932;138.594;2023-04-29T00:13:50;101054.37;;;18.67;59.08
53635;BME280;39542;-34.932;138.594;2023-04-29T00:14:24;101055.80;;;18.67;59.18
53635;BME280;39542;-34.932;138.594;2023-04-29T00:14:59;101056.51;;;18.65;59.55
53635;BME280;39542;-34.932;138.594;2023-04-29T00:18:57;101056.24;;;18.80;58.81
53635;BME280;39542;-34.932;138.594;2023-04-29T00:19:33;101058.26;;;18.81;59.06
53635;BME280;39542;-34.932;138.594;2023-04-29T00:20:10;101058.65;;;18.85;58.81
53635;BME280;39542;-34.932;138.594;2023-04-29T00:20:47;101057.90;;;18.90;58.61
53635;BME280;39542;-34.932;138.594;2023-04-29T00:21:25;101057.56;;;19.01;59.16
53635;BME280;39542;-34.932;138.594;2023-04-29T00:22:01;101058.16;;;19.09;58.74
53635;BME280;39542;-34.932;138.594;2023-04-29T00:22:37;101057.32;;;19.17;58.67
53635;BME280;39542;-34.932;138.594;2023-04-29T00:23:14;101057.86;;;19.23;58.45
53635;BME280;39542;-34.932;138.594;2023-04-29T00:23:51;101058.19;;;19.33;58.06
53635;BME280;39542;-34.932;138.594;2023-04-29T00:24:26;101059.95;;;19.39;57.83
53635;BME280;39542;-34.932;138.594;2023-04-29T00:25:02;101059.36;;;19.43;57.67
53635;BME280;39542;-34.932;138.594;2023-04-29T00:25:37;101057.57;;;19.49;57.71
53635;BME280;39542;-34.932;138.594;2023-04-29T00:26:13;101060.22;;;19.54;57.61
53635;BME280;39542;-34.932;138.594;2023-04-29T00:26:48;101059.29;;;19.54;57.64
53635;BME280;39542;-34.932;138.594;2023-04-29T00:27:22;101060.52;;;19.55;57.72
53635;BME280;39542;-34.932;138.594;2023-04-29T00:27:56;101060.01;;;19.55;57.40
53635;BME280;39542;-34.932;138.594;2023-04-29T00:28:30;101057.55;;;19.49;57.63
53635;BME280;39542;-34.932;138.594;2023-04-29T00:29:05;101060.30;;;19.44;57.75
53635;BME280;39542;-34.932;138.594;2023-04-29T00:29:39;101057.95;;;19.37;57.85
53635;BME280;39542;-34.932;138.594;2023-04-29T00:30:13;101057.82;;;19.27;57.72
53635;BME280;39542;-34.932;138.594;2023-04-29T00:30:47;101056.70;;;19.24;57.91
53635;BME280;39542;-34.932;138.594;2023-04-29T00:31:22;101061.38;;;19.19;58.10
53635;BME280;39542;-34.932;138.594;2023-04-29T00:31:56;101062.55;;;19.17;58.23
53635;BME280;39542;-34.932;138.594;2023-04-29T00:32:30;101061.47;;;19.14;58.13
53635;BME280;39542;-34.932;138.594;2023-04-29T00:33:04;101061.22;;;19.12;58.50
53635;BME280;39542;-34.932;138.594;2023-04-29T00:33:38;101058.29;;;19.08;58.95
53635;BME280;39542;-34.932;138.594;2023-04-29T00:34:13;101058.38;;;19.07;59.23
53635;BME280;39542;-34.932;138.594;2023-04-29T00:34:47;101057.08;;;19.07;59.28
53635;BME280;39542;-34.932;138.594;2023-04-29T00:35:22;101056.04;;;19.06;59.16
53635;BME280;39542;-34.932;138.594;2023-04-29T00:35:56;101056.23;;;19.05;59.27
53635;BME280;39542;-34.932;138.594;2023-04-29T00:36:31;101055.69;;;19.05;59.22
53635;BME280;39542;-34.932;138.594;2023-04-29T00:37:05;101059.31;;;19.04;59.28
53635;BME280;39542;-34.932;138.594;2023-04-29T00:37:39;101058.80;;;19.01;59.26
53635;BME280;39542;-34.932;138.594;2023-04-29T00:38:13;101058.96;;;19.03;59.23
53635;BME280;39542;-34.932;138.594;2023-04-29T00:38:47;101059.37;;;19.01;59.34
53635;BME280;39542;-34.932;138.594;2023-04-29T00:39:21;101057.73;;;19.01;59.31
53635;BME280;39542;-34.932;138.594;2023-04-29T00:39:55;101057.15;;;18.98;59.34
53635;BME280;39542;-34.932;138.594;2023-04-29T00:40:30;101059.16;;;18.99;59.34
53635;BME280;39542;-34.932;138.594;2023-04-29T00:41:05;101057.68;;;18.95;59.39
53635;BME280;39542;-34.932;138.594;2023-04-29T00:41:39;101058.27;;;18.92;59.38
53635;BME280;39542;-34.932;138.594;2023-04-29T00:42:13;101054.40;;;18.90;59.37
53635;BME280;39542;-34.932;138.594;2023-04-29T00:42:48;101056.78;;;18.93;59.31
53635;BME280;39542;-34.932;138.594;2023-04-29T00:43:22;101055.58;;;18.93;59.25
53635;BME280;39542;-34.932;138.594;2023-04-29T00:43:57;101055.55;;;18.93;59.29
53635;BME280;39542;-34.932;138.594;2023-04-29T00:44:31;101055.14;;;18.96;59.22
53635;BME280;39542;-34.932;138.594;2023-04-29T00:45:06;101057.02;;;18.97;59.18
53635;BME280;39542;-34.932;138.594;2023-04-29T00:45:41;101053.69;;;18.98;59.15
53635;BME280;39542;-34.932;138.594;2023-04-29T00:46:15;101054.25;;;19.00;59.10
53635;BME280;39542;-34.932;138.594;2023-04-29T00:46:50;101050.42;;;18.97;59.23
53635;BME280;39542;-34.932;138.594;2023-04-29T00:47:24;101052.98;;;18.98;59.12
53635;BME280;39542;-34.932;138.594;2023-04-29T00:47:58;101054.18;;;19.00;59.15
53635;BME280;39542;-34.932;138.594;2023-04-29T00:48:33;101053.34;;;18.94;59.31
53635;BME280;39542;-34.932;138.594;2023-04-29T00:49:07;101051.72;;;18.94;59.28
53635;BME280;39542;-34.932;138.594;2023-04-29T00:49:42;101051.96;;;18.98;59.21
53635;BME280;39542;-34.932;138.594;2023-04-29T00:50:16;101051.01;;;19.02;59.11
53635;BME280;39542;-34.932;138.594;2023-04-29T00:50:50;101050.83;;;18.99;59.12
53635;BME280;39542;-34.932;138.594;2023-04-29T00:51:25;101050.92;;;18.97;59.20
53635;BME280;39542;-34.932;138.594;2023-04-29T00:52:00;101049.91;;;18.99;59.18
53635;BME280;39542;-34.932;138.594;2023-04-29T00:52:35;101049.04;;;18.97;59.17
53635;BME280;39542;-34.932;138.594;2023-04-29T00:53:11;101048.04;;;19.01;59.04
53635;BME280;39542;-34.932;138.594;2023-04-29T00:53:45;101049.14;;;19.02;59.14
53635;BME280;39542;-34.932;138.594;2023-04-29T00:54:20;101048.59;;;18.99;59.05
53635;BME280;39542;-34.932;138.594;2023-04-29T00:54:55;101050.77;;;19.00;59.07
53635;BME280;39542;-34.932;138.594;2023-04-29T00:55:30;101049.45;;;19.01;59.06
53635;BME280;39542;-34.932;138.594;2023-04-29T00:56:06;101049.84;;;18.99;59.17
53635;BME280;39542;-34.932;138.594;2023-04-29T00:56:40;101048.10;;;19.02;58.99
53635;BME280;39542;-34.932;138.594;2023-04-29T00:57:18;101048.46;;;19.01;59.06
53635;BME280;39542;-34.932;138.594;2023-04-29T00:57:52;101046.55;;;18.99;59.02
53635;BME280;39542;-34.932;138.594;2023-04-29T00:58:27;101044.91;;;19.01;59.01
53635;BME280;39542;-34.932;138.594;2023-04-29T00:59:03;101044.75;;;19.00;59.07
53635;BME280;39542;-34.932;138.594;2023-04-29T00:59:38;101044.26;;;19.01;59.00
53635;BME280;39542;-34.932;138.594;2023-04-29T01:00:12;101044.70;;;19.01;59.01
53635;BME280;39542;-34.932;138.594;2023-04-29T01:00:47;101045.93;;;19.03;59.00
53635;BME280;39542;-34.932;138.594;2023-04-29T01:01:21;101046.53;;;19.05;58.93
53635;BME280;39542;-34.932;138.594;2023-04-29T01:01:57;101046.75;;;19.04;58.96
53635;BME280;39542;-34.932;138.594;2023-04-29T01:02:32;101046.18;;;19.01;59.01
53635;BME280;39542;-34.932;138.594;2023-04-29T01:03:07;101047.13;;;19.03;58.96
53635;BME280;39542;-34.932;138.594;2023-04-29T01:03:41;101045.85;;;19.05;58.88
53635;BME280;39542;-34.932;138.594;2023-04-29T01:04:16;101045.77;;;19.01;58.90
53635;BME280;39542;-34.932;138.594;2023-04-29T01:04:50;101046.43;;;19.03;58.89
53635;BME280;39542;-34.932;138.594;2023-04-29T01:05:25;101045.59;;;19.03;58.94
53635;BME280;39542;-34.932;138.594;2023-04-29T01:06:06;101047.07;;;19.06;58.87
53635;BME280;39542;-34.932;138.594;2023-04-29T01:07:03;101044.04;;;19.04;58.91
53635;BME280;39542;-34.932;138.594;2023-04-29T01:07:41;101044.86;;;19.07;58.82
53635;BME280;39542;-34.932;138.594;2023-04-29T01:08:27;101043.09;;;19.04;59.02
53635;BME280;39542;-34.932;138.594;2023-04-29T01:09:17;101045.24;;;19.07;58.90
53635;BME280;39542;-34.932;138.594;2023-04-29T01:10:03;101046.78;;;19.07;58.88
53635;BME280;39542;-34.932;138.594;2023-04-29T01:10:47;101045.78;;;19.09;58.84
53635;BME280;39542;-34.932;138.594;2023-04-29T01:11:25;101044.88;;;19.09;58.82
53635;BME280;39542;-34.932;138.594;2023-04-29T01:12:14;101044.57;;;19.04;58.91
53635;BME280;39542;-34.932;138.594;2023-04-29T01:12:53;101043.82;;;19.09;58.75
53635;BME280;39542;-34.932;138.594;2023-04-29T01:13:33;101041.02;;;19.12;59.11
53635;BME280;39542;-34.932;138.594;2023-04-29T01:14:08;101043.43;;;19.11;59.20
53635;BME280;39542;-34.932;138.594;2023-04-29T01:14:46;101043.18;;;19.09;59.29
53635;BME280;39542;-34.932;138.594;2023-04-29T01:15:25;101043.92;;;19.16;59.21
53635;BME280;39542;-34.932;138.594;2023-04-29T01:16:03;101045.82;;;19.19;59.13
53635;BME280;39542;-34.932;138.594;2023-04-29T01:16:40;101047.05;;;19.12;59.26
53635;BME280;39542;-34.932;138.594;2023-04-29T01:17:18;101043.93;;;19.14;59.20
53635;BME280;39542;-34.932;138.594;2023-04-29T01:18:02;101043.33;;;19.12;59.22
53635;BME280;39542;-34.932;138.594;2023-04-29T01:18:45;101045.89;;;19.04;59.29
53635;BME280;39542;-34.932;138.594;2023-04-29T01:19:43;101045.21;;;19.09;59.20
53635;BME280;39542;-34.932;138.594;2023-04-29T01:20:18;101045.85;;;19.18;58.96
53635;BME280;39542;-34.932;138.594;2023-04-29T01:20:54;101047.64;;;19.20;58.96
53635;BME280;39542;-34.932;138.594;2023-04-29T01:21:29;101045.69;;;19.12;59.11
53635;BME280;39542;-34.932;138.594;2023-04-29T01:22:04;101045.91;;;19.11;59.19
53635;BME280;39542;-34.932;138.594;2023-04-29T01:22:38;101045.68;;;19.05;59.35
53635;BME280;39542;-34.932;138.594;2023-04-29T01:23:12;101044.38;;;19.08;59.25
53635;BME280;39542;-34.932;138.594;2023-04-29T01:23:46;101045.13;;;19.12;59.19
53635;BME280;39542;-34.932;138.594;2023-04-29T01:24:20;101046.82;;;19.18;59.18
53635;BME280;39542;-34.932;138.594;2023-04-29T01:24:55;101043.09;;;19.13;59.24
53635;BME280;39542;-34.932;138.594;2023-04-29T01:25:29;101044.73;;;19.08;59.31
53635;BME280;39542;-34.932;138.594;2023-04-29T01:26:04;101044.61;;;19.09;59.46
53635;BME280;39542;-34.932;138.594;2023-04-29T01:26:38;101042.60;;;19.06;59.12
53635;BME280;39542;-34.932;138.594;2023-04-29T01:27:22;101042.63;;;19.17;58.75
53635;BME280;39542;-34.932;138.594;2023-04-29T01:28:06;101045.53;;;19.24;58.57
53635;BME280;39542;-34.932;138.594;2023-04-29T01:28:49;101045.99;;;19.26;58.35
53635;BME280;39542;-34.932;138.594;2023-04-29T01:29:38;101045.84;;;19.23;58.42
53635;BME280;39542;-34.932;138.594;2023-04-29T01:30:21;101044.82;;;19.25;58.49
53635;BME280;39542;-34.932;138.594;2023-04-29T01:31:05;101044.52;;;19.15;58.95
53635;BME280;39542;-34.932;138.594;2023-04-29T01:31:48;101044.66;;;19.23;59.01
53635;BME280;39542;-34.932;138.594;2023-04-29T01:32:31;101042.83;;;19.16;59.20
53635;BME280;39542;-34.932;138.594;2023-04-29T01:33:16;101048.49;;;19.19;59.23
53635;BME280;39542;-34.932;138.594;2023-04-29T01:34:03;101048.51;;;19.18;59.39
53635;BME280;39542;-34.932;138.594;2023-04-29T01:34:47;101047.49;;;19.11;59.54
53635;BME280;39542;-34.932;138.594;2023-04-29T01:35:39;101047.50;;;19.08;59.66
53635;BME280;39542;-34.932;138.594;2023-04-29T01:36:23;101045.43;;;19.06;59.79
53635;BME280;39542;-34.932;138.594;2023-04-29T01:37:07;101044.93;;;19.09;59.81
53635;BME280;39542;-34.932;138.594;2023-04-29T01:37:51;101047.13;;;19.11;59.87
53635;BME280;39542;-34.932;138.594;2023-04-29T01:38:35;101045.34;;;19.14;59.86
53635;BME280;39542;-34.932;138.594;2023-04-29T01:39:20;101045.92;;;19.11;59.98
53635;BME280;39542;-34.932;138.594;2023-04-29T01:40:08;101047.17;;;19.10;60.06
53635;BME280;39542;-34.932;138.594;2023-04-29T01:40:47;101047.56;;;19.10;60.00
53635;BME280;39542;-34.932;138.594;2023-04-29T01:41:38;101047.34;;;19.06;60.16
53635;BME280;39542;-34.932;138.594;2023-04-29T01:42:24;101045.19;;;19.08;60.08
53635;BME280;39542;-34.932;138.594;2023-04-29T01:43:03;101047.21;;;19.08;60.28
53635;BME280;39542;-34.932;138.594;2023-04-29T01:43:39;101046.68;;;19.11;60.35
53635;BME280;39542;-34.932;138.594;2023-04-29T01:44:17;101045.01;;;19.08;60.60
53635;BME280;39542;-34.932;138.594;2023-04-29T01:44:56;101047.17;;;19.10;60.73
53635;BME280;39542;-34.932;138.594;2023-04-29T01:45:35;101048.43;;;19.13;60.75
53635;BME280;39542;-34.932;138.594;2023-04-29T01:46:11;101048.47;;;19.15;60.76
53635;BME280;39542;-34.932;138.594;2023-04-29T01:46:51;101048.50;;;19.15;60.88
53635;BME280;39542;-34.932;138.594;2023-04-29T01:47:26;101047.50;;;19.14;61.06
53635;BME280;39542;-34.932;138.594;2023-04-29T01:48:00;101046.26;;;19.12;61.32
53635;BME280;39542;-34.932;138.594;2023-04-29T01:48:35;101044.73;;;19.16;61.22
53635;BME280;39542;-34.932;138.594;2023-04-29T01:49:09;101043.62;;;19.19;61.21
53635;BME280;39542;-34.932;138.594;2023-04-29T01:49:43;101042.72;;;19.19;61.16
53635;BME280;39542;-34.932;138.594;2023-04-29T01:50:18;101041.93;;;19.17;62.67
53635;BME280;39542;-34.932;138.594;2023-04-29T01:50:52;101042.50;;;19.21;62.53
53635;BME280;39542;-34.932;138.594;2023-04-29T01:51:26;101044.04;;;19.19;62.96
53635;BME280;39542;-34.932;138.594;2023-04-29T01:52:00;101043.51;;;19.25;61.98
53635;BME280;39542;-34.932;138.594;2023-04-29T01:52:35;101040.85;;;19.22;62.50
53635;BME280;39542;-34.932;138.594;2023-04-29T01:53:09;101040.76;;;19.18;62.70
53635;BME280;39542;-34.932;138.594;2023-04-29T01:53:43;101039.47;;;19.17;62.65
53635;BME280;39542;-34.932;138.594;2023-04-29T01:54:17;101042.66;;;19.19;62.51
53635;BME280;39542;-34.932;138.594;2023-04-29T01:54:53;101042.42;;;19.21;62.17
53635;BME280;39542;-34.932;138.594;2023-04-29T01:55:28;101040.46;;;19.21;62.06
53635;BME280;39542;-34.932;138.594;2023-04-29T01:56:02;101040.38;;;19.20;61.97
53635;BME280;39542;-34.932;138.594;2023-04-29T01:56:36;101041.71;;;19.21;61.66
53635;BME280;39542;-34.932;138.594;2023-04-29T01:57:10;101040.44;;;19.17;62.10
53635;BME280;39542;-34.932;138.594;2023-04-29T01:57:44;101039.52;;;19.18;61.82
53635;BME280;39542;-34.932;138.594;2023-04-29T01:58:18;101038.31;;;19.23;61.91
53635;BME280;39542;-34.932;138.594;2023-04-29T01:58:52;101037.15;;;19.21;61.91
53635;BME280;39542;-34.932;138.594;2023-04-29T01:59:26;101035.94;;;19.20;61.77
53635;BME280;39542;-34.932;138.594;2023-04-29T02:00:01;101032.58;;;19.23;61.74
53635;BME280;39542;-34.932;138.594;2023-04-29T02:00:35;101031.16;;;19.21;61.70
53635;BME280;39542;-34.932;138.594;2023-04-29T02:01:09;101030.63;;;19.19;61.94
53635;BME280;39542;-34.932;138.594;2023-04-29T02:01:43;101030.20;;;19.17;61.70
53635;BME280;39542;-34.932;138.594;2023-04-29T02:02:18;101029.34;;;19.18;61.77
53635;BME280;39542;-34.932;138.594;2023-04-29T02:02:52;101027.10;;;19.17;61.86
53635;BME280;39542;-34.932;138.594;2023-04-29T02:03:27;101025.55;;;19.20;61.54
53635;BME280;39542;-34.932;138.594;2023-04-29T02:04:02;101024.06;;;19.22;61.51
53635;BME280;39542;-34.932;138.594;2023-04-29T02:04:36;101024.60;;;19.16;61.64
53635;BME280;39542;-34.932;138.594;2023-04-29T02:05:11;101020.37;;;19.16;61.74
53635;BME280;39542;-34.932;138.594;2023-04-29T02:05:45;101020.94;;;19.16;61.56
53635;BME280;39542;-34.932;138.594;2023-04-29T02:06:19;101020.40;;;19.19;61.31
53635;BME280;39542;-34.932;138.594;2023-04-29T02:06:54;101018.70;;;19.23;61.12
53635;BME280;39542;-34.932;138.594;2023-04-29T02:07:28;101018.52;;;19.24;61.29
53635;BME280;39542;-34.932;138.594;2023-04-29T02:08:03;101017.91;;;19.18;61.74
53635;BME280;39542;-34.932;138.594;2023-04-29T02:08:37;101016.32;;;19.18;61.66
53635;BME280;39542;-34.932;138.594;2023-04-29T02:09:11;101018.12;;;19.19;61.53
53635;BME280;39542;-34.932;138.594;2023-04-29T02:09:46;101015.62;;;19.25;61.27
53635;BME280;39542;-34.932;138.594;2023-04-29T02:10:21;101014.85;;;19.23;61.41
53635;BME280;39542;-34.932;138.594;2023-04-29T02:10:56;101011.33;;;19.23;61.21
53635;BME280;39542;-34.932;138.594;2023-04-29T02:11:31;101009.33;;;19.27;60.92
53635;BME280;39542;-34.932;138.594;2023-04-29T02:12:06;101009.69;;;19.24;61.31
53635;BME280;39542;-34.932;138.594;2023-04-29T02:12:40;101010.64;;;19.22;61.40
53635;BME280;39542;-34.932;138.594;2023-04-29T02:13:14;101008.86;;;19.25;61.25
53635;BME280;39542;-34.932;138.594;2023-04-29T02:13:48;101008.68;;;19.22;61.44
53635;BME280;39542;-34.932;138.594;2023-04-29T02:14:23;101008.89;;;19.17;61.46
53635;BME280;39542;-34.932;138.594;2023-04-29T02:14:57;101009.95;;;19.18;61.40
53635;BME280;39542;-34.932;138.594;2023-04-29T02:15:32;101008.21;;;19.18;61.41
53635;BME280;39542;-34.932;138.594;2023-04-29T02:16:10;101009.49;;;19.19;61.40
53635;BME280;39542;-34.932;138.594;2023-04-29T02:16:45;101005.00;;;19.20;61.19
53635;BME280;39542;-34.932;138.594;2023-04-29T02:17:19;101002.90;;;19.19;61.27
53635;BME280;39542;-34.932;138.594;2023-04-29T02:17:53;101002.07;;;19.17;61.24
53635;BME280;39542;-34.932;138.594;2023-04-29T02:18:27;101000.05;;;19.17;61.39
53635;BME280;39542;-34.932;138.594;2023-04-29T02:19:02;100999.68;;;19.16;61.50
53635;BME280;39542;-34.932;138.594;2023-04-29T02:19:36;100999.20;;;19.18;61.49
53635;BME280;39542;-34.932;138.594;2023-04-29T02:20:11;100997.92;;;19.19;60.63
53635;BME280;39542;-34.932;138.594;2023-04-29T02:20:45;100999.15;;;19.15;60.50
53635;BME280;39542;-34.932;138.594;2023-04-29T02:21:20;100996.81;;;19.14;60.11
53635;BME280;39542;-34.932;138.594;2023-04-29T02:21:54;100993.27;;;19.15;59.82
53635;BME280;39542;-34.932;138.594;2023-04-29T02:22:28;100992.46;;;19.15;58.99
53635;BME280;39542;-34.932;138.594;2023-04-29T02:23:02;100993.44;;;19.17;59.03
53635;BME280;39542;-34.932;138.594;2023-04-29T02:23:37;100993.64;;;19.18;59.38
53635;BME280;39542;-34.932;138.594;2023-04-29T02:24:11;100991.43;;;19.19;59.96
53635;BME280;39542;-34.932;138.594;2023-04-29T02:24:45;100993.09;;;19.20;60.18
53635;BME280;39542;-34.932;138.594;2023-04-29T02:25:20;100993.07;;;19.16;60.30
53635;BME280;39542;-34.932;138.594;2023-04-29T02:25:54;100994.13;;;19.17;60.23
53635;BME280;39542;-34.932;138.594;2023-04-29T02:26:29;100993.22;;;19.18;60.36
53635;BME280;39542;-34.932;138.594;2023-04-29T02:27:03;100996.04;;;19.15;60.52
53635;BME280;39542;-34.932;138.594;2023-04-29T02:27:37;100995.74;;;19.17;60.34
53635;BME280;39542;-34.932;138.594;2023-04-29T02:28:11;100995.71;;;19.17;60.46
53635;BME280;39542;-34.932;138.594;2023-04-29T02:28:46;100997.46;;;19.13;60.46
53635;BME280;39542;-34.932;138.594;2023-04-29T02:29:20;100995.91;;;19.14;60.55
53635;BME280;39542;-34.932;138.594;2023-04-29T02:29:54;100996.96;;;19.12;60.55
53635;BME280;39542;-34.932;138.594;2023-04-29T02:30:29;100996.22;;;19.14;60.44
53635;BME280;39542;-34.932;138.594;2023-04-29T02:31:03;100994.10;;;19.14;60.44
53635;BME280;39542;-34.932;138.594;2023-04-29T02:31:37;100995.26;;;19.18;60.33
53635;BME280;39542;-34.932;138.594;2023-04-29T02:32:11;100992.57;;;19.16;60.34
53635;BME280;39542;-34.932;138.594;2023-04-29T02:32:45;100995.72;;;19.13;60.39
53635;BME280;39542;-34.932;138.594;2023-04-29T02:33:20;100994.93;;;19.13;60.34
53635;BME280;39542;-34.932;138.594;2023-04-29T02:33:54;100994.41;;;19.11;60.35
53635;BME280;39542;-34.932;138.594;2023-04-29T02:34:29;100993.79;;;19.09;60.35
53635;BME280;39542;-34.932;138.594;2023-04-29T02:35:03;100993.71;;;19.11;60.21
53635;BME280;39542;-34.932;138.594;2023-04-29T02:35:37;100994.39;;;19.11;60.15
53635;BME280;39542;-34.932;138.594;2023-04-29T02:36:14;100992.75;;;19.11;60.08
53635;BME280;39542;-34.932;138.594;2023-04-29T02:36:48;100992.96;;;19.13;60.00
53635;BME280;39542;-34.932;138.594;2023-04-29T02:37:22;100990.24;;;19.13;59.96
53635;BME280;39542;-34.932;138.594;2023-04-29T02:37:57;100990.54;;;19.11;59.97
53635;BME280;39542;-34.932;138.594;2023-04-29T02:38:31;100989.79;;;19.06;60.11
53635;BME280;39542;-34.932;138.594;2023-04-29T02:39:05;100987.79;;;19.10;59.96
53635;BME280;39542;-34.932;138.594;2023-04-29T02:39:40;100987.41;;;19.09;60.04
53635;BME280;39542;-34.932;138.594;2023-04-29T02:40:14;100987.16;;;19.07;60.08
53635;BME280;39542;-34.932;138.594;2023-04-29T02:40:48;100987.69;;;19.10;60.06
53635;BME280;39542;-34.932;138.594;2023-04-29T02:41:23;100984.62;;;19.13;59.99
53635;BME280;39542;-34.932;138.594;2023-04-29T02:41:58;100983.66;;;19.10;60.03
53635;BME280;39542;-34.932;138.594;2023-04-29T02:42:32;100979.99;;;19.15;59.91
53635;BME280;39542;-34.932;138.594;2023-04-29T02:43:06;100977.95;;;19.09;60.09
53635;BME280;39542;-34.932;138.594;2023-04-29T02:43:40;100979.37;;;19.13;59.96
53635;BME280;39542;-34.932;138.594;2023-04-29T02:44:14;100978.03;;;19.14;59.97
53635;BME280;39542;-34.932;138.594;2023-04-29T02:44:48;100978.55;;;19.14;59.97
53635;BME280;39542;-34.932;138.594;2023-04-29T02:45:23;100975.40;;;19.17;59.91
53635;BME280;39542;-34.932;138.594;2023-04-29T02:45:57;100976.14;;;19.17;59.89
53635;BME280;39542;-34.932;138.594;2023-04-29T02:46:31;100975.43;;;19.16;59.98
53635;BME280;39542;-34.932;138.594;2023-04-29T02:47:06;100974.06;;;19.16;59.93
53635;BME280;39542;-34.932;138.594;2023-04-29T02:47:40;100971.92;;;19.15;59.95
53635;BME280;39542;-34.932;138.594;2023-04-29T02:48:14;100969.78;;;19.13;59.93
53635;BME280;39542;-34.932;138.594;2023-04-29T02:48:49;100967.31;;;19.16;59.97
53635;BME280;39542;-34.932;138.594;2023-04-29T02:49:23;100963.97;;;19.15;60.02
53635;BME280;39542;-34.932;138.594;2023-04-29T02:49:58;100963.71;;;19.13;60.04
53635;BME280;39542;-34.932;138.594;2023-04-29T02:50:32;100964.57;;;19.15;60.05
53635;BME280;39542;-34.932;138.594;2023-04-29T02:51:06;100961.89;;;19.14;60.08
53635;BME280;39542;-34.932;138.594;2023-04-29T02:51:40;100959.95;;;19.15;60.04
53635;BME280;39542;-34.932;138.594;2023-04-29T02:52:15;100960.95;;;19.14;60.00
53635;BME280;39542;-34.932;138.594;2023-04-29T02:52:49;100959.93;;;19.11;60.12
53635;BME280;39542;-34.932;138.594;2023-04-29T02:53:23;100957.88;;;19.13;60.09
53635;BME280;39542;-34.932;138.594;2023-04-29T02:53:57;100957.95;;;19.12;60.04
53635;BME280;39542;-34.932;138.594;2023-04-29T02:54:31;100957.12;;;19.11;60.06
53635;BME280;39542;-34.932;138.594;2023-04-29T02:55:06;100957.02;;;19.12;60.06
53635;BME280;39542;-34.932;138.594;2023-04-29T02:55:41;100957.52;;;19.14;60.07
53635;BME280;39542;-34.932;138.594;2023-04-29T02:56:15;100957.18;;;19.12;60.05
53635;BME280;39542;-34.932;138.594;2023-04-29T02:56:49;100955.04;;;19.13;60.04
53635;BME280;39542;-34.932;138.594;2023-04-29T02:57:24;100955.78;;;19.18;59.96
53635;BME280;39542;-34.932;138.594;2023-04-29T02:57:58;100957.21;;;19.16;59.99
53635;BME280;39542;-34.932;138.594;2023-04-29T02:58:32;100957.72;;;19.19;59.84
53635;BME280;39542;-34.932;138.594;2023-04-29T02:59:06;100956.50;;;19.18;59.88
53635;BME280;39542;-34.932;138.594;2023-04-29T02:59:41;100958.24;;;19.20;59.84
53635;BME280;39542;-34.932;138.594;2023-04-29T03:00:15;100957.55;;;19.14;59.97
53635;BME280;39542;-34.932;138.594;2023-04-29T03:00:50;100957.08;;;19.17;59.92
53635;BME280;39542;-34.932;138.594;2023-04-29T03:01:25;100957.36;;;19.14;59.92
53635;BME280;39542;-34.932;138.594;2023-04-29T03:01:59;100957.10;;;19.15;59.91
53635;BME280;39542;-34.932;138.594;2023-04-29T03:02:33;100955.46;;;19.14;59.92
53635;BME280;39542;-34.932;138.594;2023-04-29T03:03:08;100956.86;;;19.17;59.87
53635;BME280;39542;-34.932;138.594;2023-04-29T03:03:41;100954.92;;;19.17;59.86